UUEE 200130Z 21004MPS CAVOK 19/15 Q1006 R24C/CLRD62 NOSIG
QNH:(hPa/inHg/mmHg)1006 / 29.71 / 755
QFE:(hPa/inHg/mmHg)983 / 29.02 / 737
Temperature19
Dew Point15
Visibility> 10000
WeatherCAVOK
Cloud Cover
Transition Altitude10000 ft.
Transition LevelFL120
SQUAWK